createdAt,value
2022-12-26T00:02:01.947Z,71.26
2022-12-26T00:07:10.527Z,71.27
2022-12-26T00:12:18.693Z,71.29
2022-12-26T00:17:27.089Z,71.30
2022-12-26T00:22:36.204Z,71.32
2022-12-26T00:27:44.513Z,71.28
2022-12-26T00:32:52.835Z,71.25
2022-12-26T00:38:02.005Z,71.23
2022-12-26T00:43:10.701Z,71.24
2022-12-26T00:48:19.188Z,71.24
2022-12-26T00:53:28.237Z,71.25
2022-12-26T00:58:38.460Z,71.23
2022-12-26T01:03:48.409Z,71.20
2022-12-26T01:08:57.381Z,71.20
2022-12-26T01:14:05.647Z,71.22
2022-12-26T01:19:15.189Z,71.27
2022-12-26T01:24:23.354Z,71.31
2022-12-26T01:29:31.613Z,71.31
2022-12-26T01:34:40.175Z,71.33
2022-12-26T01:39:48.492Z,71.36
2022-12-26T01:45:07.147Z,71.39
2022-12-26T01:50:27.834Z,71.43
2022-12-26T01:55:38.151Z,71.46
2022-12-26T02:00:46.661Z,71.51
2022-12-26T02:05:56.418Z,71.54
2022-12-26T02:11:12.948Z,71.59
2022-12-26T02:16:22.532Z,71.59
2022-12-26T02:22:23.142Z,71.61
2022-12-26T02:27:50.406Z,71.62
2022-12-26T02:33:34.767Z,71.63
2022-12-26T02:38:54.495Z,71.66
2022-12-26T02:44:26.809Z,71.68
2022-12-26T02:49:59.199Z,71.75
2022-12-26T02:55:28.726Z,71.81
2022-12-26T03:00:59.728Z,71.92
2022-12-26T03:06:32.584Z,71.92
2022-12-26T03:12:03.950Z,71.95
2022-12-26T03:17:23.443Z,72.00
2022-12-26T03:22:39.000Z,72.12
2022-12-26T03:27:47.206Z,72.18
2022-12-26T03:32:56.826Z,72.15
2022-12-26T03:38:10.144Z,72.12
2022-12-26T03:43:46.890Z,72.08
2022-12-26T03:49:23.321Z,72.05
2022-12-26T03:54:57.895Z,72.03
2022-12-26T04:00:28.549Z,71.99
2022-12-26T04:05:58.585Z,72.00
2022-12-26T04:11:30.368Z,72.01
2022-12-26T04:17:02.574Z,72.05
2022-12-26T04:22:35.998Z,72.07
2022-12-26T04:28:03.123Z,72.12
2022-12-26T04:33:38.417Z,72.11
2022-12-26T04:39:09.171Z,72.11
2022-12-26T04:44:19.359Z,72.08
2022-12-26T04:49:47.342Z,72.04
2022-12-26T04:54:54.945Z,71.98
2022-12-26T05:00:03.052Z,71.96
2022-12-26T05:05:30.747Z,71.93
2022-12-26T05:10:39.562Z,71.90
2022-12-26T05:16:07.087Z,71.89
2022-12-26T05:21:38.423Z,71.92
2022-12-26T05:27:04.276Z,71.91
2022-12-26T05:32:12.968Z,71.92
2022-12-26T05:37:21.756Z,71.87
2022-12-26T05:42:30.277Z,71.89
2022-12-26T05:47:39.329Z,71.91
2022-12-26T05:52:47.756Z,71.92
2022-12-26T05:57:56.184Z,71.93
2022-12-26T06:03:05.327Z,71.89
2022-12-26T06:08:13.989Z,71.90
2022-12-26T06:13:22.175Z,71.92
2022-12-26T06:18:30.886Z,71.93
2022-12-26T06:23:40.526Z,71.94
2022-12-26T06:28:49.111Z,71.92
2022-12-26T06:34:01.973Z,71.95
2022-12-26T06:39:10.377Z,71.99
2022-12-26T06:44:19.094Z,72.03
2022-12-26T06:49:32.607Z,72.10
2022-12-26T06:54:42.788Z,72.16
2022-12-26T06:59:52.257Z,72.20
2022-12-26T07:05:00.751Z,72.23
2022-12-26T07:10:10.234Z,72.32
2022-12-26T07:15:18.995Z,72.35
2022-12-26T07:20:27.187Z,72.42
2022-12-26T07:25:35.809Z,72.41
2022-12-26T07:30:48.767Z,72.34
2022-12-26T07:36:01.502Z,72.19
2022-12-26T07:41:24.669Z,72.00
2022-12-26T07:46:33.727Z,71.91
2022-12-26T07:51:42.766Z,71.87
2022-12-26T07:56:51.265Z,71.98
2022-12-26T08:02:00.289Z,72.14
2022-12-26T08:07:09.148Z,72.27
2022-12-26T08:12:17.439Z,72.38
2022-12-26T08:17:25.757Z,72.44
2022-12-26T08:22:34.303Z,72.53
2022-12-26T08:27:43.812Z,72.62
2022-12-26T08:32:52.474Z,72.71
2022-12-26T08:38:01.617Z,72.76
2022-12-26T08:43:32.037Z,72.83
2022-12-26T08:48:40.148Z,72.89
2022-12-26T08:53:49.970Z,72.85
2022-12-26T08:58:59.074Z,72.86
2022-12-26T09:04:08.640Z,72.87
2022-12-26T09:09:16.915Z,72.87
2022-12-26T09:14:25.090Z,72.89
2022-12-26T09:19:33.552Z,72.87
2022-12-26T09:24:41.830Z,72.90
2022-12-26T09:29:49.651Z,72.87
2022-12-26T09:34:58.680Z,72.89
2022-12-26T09:40:09.046Z,72.96
2022-12-26T09:45:20.112Z,72.96
2022-12-26T09:50:37.095Z,72.97
2022-12-26T09:55:52.128Z,73.02
2022-12-26T10:01:09.910Z,73.05
2022-12-26T10:06:22.087Z,73.10
2022-12-26T10:11:45.020Z,73.16
2022-12-26T10:17:01.349Z,73.19
2022-12-26T10:22:25.055Z,73.24
2022-12-26T10:27:40.383Z,73.25
2022-12-26T10:32:54.498Z,73.27
2022-12-26T10:38:14.046Z,73.29
2022-12-26T10:43:29.063Z,73.29
2022-12-26T10:48:38.463Z,73.32
2022-12-26T10:53:50.624Z,73.30
2022-12-26T10:59:05.967Z,73.34
2022-12-26T11:04:53.158Z,73.43
2022-12-26T11:09:57.766Z,73.40
2022-12-26T11:15:09.760Z,73.44
2022-12-26T11:20:33.848Z,73.45
2022-12-26T11:25:52.875Z,73.42
2022-12-26T11:31:02.926Z,73.37
2022-12-26T11:36:21.165Z,73.43
2022-12-26T11:41:43.099Z,73.47
2022-12-26T11:46:55.316Z,73.51
2022-12-26T11:52:05.599Z,73.57
2022-12-26T11:57:23.298Z,73.63
2022-12-26T12:02:34.054Z,73.68
2022-12-26T12:07:54.804Z,73.74
2022-12-26T12:13:12.460Z,73.82
2022-12-26T12:18:32.514Z,73.85
2022-12-26T12:23:56.436Z,73.88
2022-12-26T12:29:29.425Z,73.91
2022-12-26T12:34:48.718Z,73.94
2022-12-26T12:40:08.127Z,73.93
2022-12-26T12:45:28.561Z,73.90
2022-12-26T12:50:46.311Z,73.88
2022-12-26T12:56:12.704Z,73.91
2022-12-26T13:01:25.512Z,73.94
2022-12-26T13:06:43.251Z,74.00
2022-12-26T13:11:57.748Z,74.09
2022-12-26T13:17:11.427Z,74.14
2022-12-26T13:22:26.645Z,74.22
2022-12-26T13:27:41.195Z,74.28
2022-12-26T13:32:50.358Z,74.36
2022-12-26T13:38:00.565Z,74.41
2022-12-26T13:43:37.814Z,74.49
2022-12-26T13:49:02.094Z,74.51
2022-12-26T13:54:15.904Z,74.63
2022-12-26T13:59:31.467Z,74.80
2022-12-26T14:04:56.594Z,75.00
2022-12-26T14:10:15.946Z,75.25
2022-12-26T14:15:43.833Z,75.49
2022-12-26T14:21:00.856Z,75.64
2022-12-26T14:26:22.080Z,75.87
2022-12-26T14:31:42.182Z,76.02
2022-12-26T14:36:54.792Z,76.26
2022-12-26T14:42:46.895Z,76.49
2022-12-26T14:47:53.965Z,76.83
2022-12-26T14:53:33.212Z,77.04
2022-12-26T14:58:45.584Z,77.17
2022-12-26T15:03:59.074Z,77.16
2022-12-26T15:09:24.403Z,76.93
2022-12-26T15:15:02.607Z,76.73
2022-12-26T15:20:52.764Z,76.42
2022-12-26T15:26:21.335Z,76.13
2022-12-26T15:31:50.617Z,75.86
2022-12-26T15:37:04.501Z,75.68
2022-12-26T15:42:33.885Z,75.64
2022-12-26T15:47:51.167Z,75.56
2022-12-26T15:53:16.938Z,75.42
2022-12-26T15:58:52.015Z,75.23
2022-12-26T16:04:01.915Z,75.18
2022-12-26T16:09:36.683Z,75.09
2022-12-26T16:14:47.335Z,75.11
2022-12-26T16:19:57.195Z,75.15
2022-12-26T16:25:08.861Z,75.13
2022-12-26T16:30:22.514Z,75.03
2022-12-26T16:35:34.764Z,74.92
2022-12-26T16:40:44.036Z,74.80
2022-12-26T16:45:54.747Z,74.76
2022-12-26T16:51:04.921Z,74.62
2022-12-26T16:56:28.591Z,74.58
2022-12-26T17:01:39.168Z,74.65
2022-12-26T17:06:54.540Z,74.72
2022-12-26T17:12:05.309Z,74.60
2022-12-26T17:17:32.707Z,74.45
2022-12-26T17:22:41.157Z,74.34
2022-12-26T17:27:51.647Z,74.27
2022-12-26T17:33:06.192Z,74.32
2022-12-26T17:38:21.609Z,74.41
2022-12-26T17:43:36.122Z,74.68
2022-12-26T17:48:45.419Z,74.93
2022-12-26T17:53:55.099Z,75.04
2022-12-26T17:59:04.499Z,75.10
2022-12-26T18:04:13.375Z,75.11
2022-12-26T18:09:29.988Z,75.20
2022-12-26T18:14:38.802Z,75.27
2022-12-26T18:19:47.282Z,75.32
2022-12-26T18:24:55.774Z,75.36
2022-12-26T18:30:04.441Z,75.43
2022-12-26T18:35:14.055Z,75.48
2022-12-26T18:40:35.876Z,75.44
2022-12-26T18:45:44.960Z,75.39
2022-12-26T18:50:54.994Z,75.40
2022-12-26T18:56:03.277Z,75.39
2022-12-26T19:01:15.525Z,75.35
2022-12-26T19:06:26.985Z,75.31
2022-12-26T19:11:36.293Z,75.25
2022-12-26T19:16:44.618Z,75.23
2022-12-26T19:21:53.224Z,75.25
2022-12-26T19:27:01.564Z,75.27
2022-12-26T19:32:10.729Z,75.22
2022-12-26T19:37:19.308Z,75.19
2022-12-26T19:42:28.546Z,75.13
2022-12-26T19:47:37.635Z,75.03
2022-12-26T19:52:46.063Z,74.97
2022-12-26T19:57:54.223Z,74.95
2022-12-26T20:03:03.884Z,74.90
2022-12-26T20:08:13.311Z,74.85
2022-12-26T20:13:22.133Z,74.77
2022-12-26T20:18:31.832Z,74.64
2022-12-26T20:23:41.135Z,74.47
2022-12-26T20:28:50.478Z,74.21
2022-12-26T20:33:59.993Z,74.23
2022-12-26T20:39:10.801Z,74.34
2022-12-26T20:44:20.086Z,74.46
2022-12-26T20:49:29.527Z,74.50
2022-12-26T20:54:38.139Z,74.50
2022-12-26T20:59:46.651Z,74.59
2022-12-26T21:04:56.710Z,74.55
2022-12-26T21:10:05.187Z,74.43
2022-12-26T21:15:14.366Z,74.37
2022-12-26T21:20:23.500Z,74.33
2022-12-26T21:25:32.110Z,74.26
2022-12-26T21:30:40.923Z,74.23
2022-12-26T21:35:53.795Z,74.20
2022-12-26T21:41:02.380Z,74.13
2022-12-26T21:46:14.627Z,73.99
2022-12-26T21:51:22.149Z,73.94
2022-12-26T21:56:30.527Z,74.10
2022-12-26T22:01:39.077Z,74.21
2022-12-26T22:06:48.001Z,74.33
2022-12-26T22:12:13.537Z,74.41
2022-12-26T22:17:21.884Z,74.48
2022-12-26T22:22:30.407Z,74.50
2022-12-26T22:27:38.839Z,74.51
2022-12-26T22:32:47.570Z,74.56
2022-12-26T22:37:55.735Z,74.62
2022-12-26T22:43:04.175Z,74.61
2022-12-26T22:48:12.752Z,74.62
2022-12-26T22:53:21.891Z,74.67
2022-12-26T22:58:30.336Z,74.73
2022-12-26T23:03:39.035Z,74.79
2022-12-26T23:08:48.723Z,74.75
2022-12-26T23:13:58.115Z,74.71
2022-12-26T23:19:31.370Z,74.73
2022-12-26T23:24:39.833Z,74.70
2022-12-26T23:30:07.137Z,74.58
2022-12-26T23:35:15.980Z,74.49
2022-12-26T23:40:24.912Z,74.46
2022-12-26T23:45:33.661Z,74.40
2022-12-26T23:50:41.804Z,74.28
2022-12-26T23:55:49.962Z,73.91
